Port Credit, Canada
Current Conditions -  °F | °C
As of 1:00 AM on Saturday 29 Nov 2014 (Local Time) from CYYZ Reporting Station
Overcast Overcast  
Wind Chill: 23°   Ceiling: 2600
Heat Index: 23°   Visibility: 15mi
Dew Point: 12°   Wind: 3mph
Humidity: 63%   Direction: 160°SSE
Pressure: 30.17"   Gusts: NA
Location:  43.55°N, 79.58°W
Report Text: CYYZ 290600Z 16003KT 15SM OVC026 M05/M11 A3017 RMK SC8 SLP225
Loading
Personal Weather Stations






























Interactive Weather Map New forecast layout! Learn more

10-Day Weather Forecast

Advertisements
Track Severe Weather on mobile